Meteorología y climatología de Navarra
Datos de la estación - Meteo Navarra

Estación de Iñarbegi GN

Altitud 585 m.


Datos desde el 10/10/2019 hasta el 11/10/2019 en horario solar
Los datos son PROVISIONALES

Anterior Página 1 de 1 Siguiente Descargar: Formato para Excel 2000 o superior   Formato csv   Formato para OpenOffice Calc
Fecha Temperatura Humedad relativa Radiación global Insolación Precipitación Vel. viento 10 m Vel. viento 10 m Dir. viento 10 m
ºC % W/m² s l/m² m/s km/h º
10/10/2019 0:00 10.6 100 - - - - 0.0 - - - - - -
10/10/2019 0:10 10.5 100 - - - - 0.0 - - - - - -
10/10/2019 0:20 10.4 100 - - - - 0.0 - - - - - -
10/10/2019 0:30 10.5 100 - - - - 0.0 - - - - - -
10/10/2019 0:40 10.6 100 - - - - 0.0 - - - - - -
10/10/2019 0:50 10.6 100 - - - - 0.0 - - - - - -
10/10/2019 1:00 10.6 100 - - - - 0.0 - - - - - -
10/10/2019 1:10 10.6 100 - - - - 0.0 - - - - - -
10/10/2019 1:20 10.7 100 - - - - 0.0 - - - - - -
10/10/2019 1:30 10.7 100 - - - - 0.0 - - - - - -
10/10/2019 1:40 10.5 100 - - - - 0.0 - - - - - -
10/10/2019 1:50 10.3 100 - - - - 0.0 - - - - - -
10/10/2019 2:00 10.2 100 - - - - 0.0 - - - - - -
10/10/2019 2:10 10.0 100 - - - - 0.0 - - - - - -
10/10/2019 2:20 9.9 100 - - - - 0.0 - - - - - -
10/10/2019 2:30 9.8 100 - - - - 0.0 - - - - - -
10/10/2019 2:40 9.6 100 - - - - 0.0 - - - - - -
10/10/2019 2:50 9.5 100 - - - - 0.0 - - - - - -
10/10/2019 3:00 9.3 100 - - - - 0.0 - - - - - -
10/10/2019 3:10 9.1 100 - - - - 0.0 - - - - - -
10/10/2019 3:20 8.9 100 - - - - 0.0 - - - - - -
10/10/2019 3:30 8.9 100 - - - - 0.0 - - - - - -
10/10/2019 3:40 8.8 100 - - - - 0.0 - - - - - -
10/10/2019 3:50 8.7 100 - - - - 0.0 - - - - - -
10/10/2019 4:00 8.7 100 - - - - 0.0 - - - - - -
10/10/2019 4:10 8.7 100 - - - - 0.0 - - - - - -
10/10/2019 4:20 8.6 100 - - - - 0.0 - - - - - -
10/10/2019 4:30 8.4 100 - - - - 0.0 - - - - - -
10/10/2019 4:40 8.5 100 - - - - 0.0 - - - - - -
10/10/2019 4:50 8.1 100 - - - - 0.0 - - - - - -
10/10/2019 5:00 8.3 100 - - - - 0.0 - - - - - -
10/10/2019 5:10 8.2 100 - - - - 0.0 - - - - - -
10/10/2019 5:20 8.1 100 - - - - 0.0 - - - - - -
10/10/2019 5:30 7.8 100 - - - - 0.0 - - - - - -
10/10/2019 5:40 7.8 100 - - - - 0.0 - - - - - -
10/10/2019 5:50 7.9 100 - - - - 0.0 - - - - - -
10/10/2019 6:00 7.9 100 - - - - 0.0 - - - - - -
10/10/2019 6:10 8.0 100 - - - - 0.0 - - - - - -
10/10/2019 6:20 7.8 100 - - - - 0.0 - - - - - -
10/10/2019 6:30 8.0 100 - - - - 0.0 - - - - - -
10/10/2019 6:40 8.0 100 - - - - 0.0 - - - - - -
10/10/2019 6:50 7.8 100 - - - - 0.0 - - - - - -
10/10/2019 7:00 7.8 100 - - - - 0.0 - - - - - -
10/10/2019 7:10 8.2 100 - - - - 0.0 - - - - - -
10/10/2019 7:20 9.0 100 - - - - 0.0 - - - - - -
10/10/2019 7:30 9.6 100 - - - - 0.0 - - - - - -
10/10/2019 7:40 10.0 100 - - - - 0.0 - - - - - -
10/10/2019 7:50 10.0 100 - - - - 0.0 - - - - - -
10/10/2019 8:00 10.5 100 - - - - 0.0 - - - - - -
10/10/2019 8:10 10.6 99 - - - - 0.0 - - - - - -
10/10/2019 8:20 11.1 98 - - - - 0.0 - - - - - -
10/10/2019 8:30 11.3 95 - - - - 0.0 - - - - - -
10/10/2019 8:40 11.9 94 - - - - 0.0 - - - - - -
10/10/2019 8:50 12.2 90 - - - - 0.0 - - - - - -
10/10/2019 9:00 13.3 87 - - - - 0.0 - - - - - -
10/10/2019 9:10 13.8 84 - - - - 0.0 - - - - - -
10/10/2019 9:20 14.1 84 - - - - 0.0 - - - - - -
10/10/2019 9:30 14.3 83 - - - - 0.0 - - - - - -
10/10/2019 9:40 14.7 81 - - - - 0.0 - - - - - -
10/10/2019 9:50 14.4 83 - - - - 0.0 - - - - - -
10/10/2019 10:00 14.9 82 - - - - 0.0 - - - - - -
10/10/2019 10:10 14.9 80 - - - - 0.0 - - - - - -
10/10/2019 10:20 14.9 78 - - - - 0.0 - - - - - -
10/10/2019 10:30 15.3 78 - - - - 0.0 - - - - - -
10/10/2019 10:40 15.7 77 - - - - 0.0 - - - - - -
10/10/2019 10:50 16.0 76 - - - - 0.0 - - - - - -
10/10/2019 11:00 16.4 76 - - - - 0.0 - - - - - -
10/10/2019 11:10 16.0 75 - - - - 0.0 - - - - - -
10/10/2019 11:20 16.8 72 - - - - 0.0 - - - - - -
10/10/2019 11:30 17.2 69 - - - - 0.0 - - - - - -
10/10/2019 11:40 17.4 66 - - - - 0.0 - - - - - -
10/10/2019 11:50 17.6 64 - - - - 0.0 - - - - - -
10/10/2019 12:00 18.2 60 - - - - 0.0 - - - - - -
10/10/2019 12:10 18.2 58 - - - - 0.0 - - - - - -
10/10/2019 12:20 18.3 57 - - - - 0.0 - - - - - -
10/10/2019 12:30 18.7 56 - - - - 0.0 - - - - - -
10/10/2019 12:40 18.9 54 - - - - 0.0 - - - - - -
10/10/2019 12:50 18.6 57 - - - - 0.0 - - - - - -
10/10/2019 13:00 18.8 53 - - - - 0.0 - - - - - -
10/10/2019 13:10 18.9 53 - - - - 0.0 - - - - - -
10/10/2019 13:20 19.0 54 - - - - 0.0 - - - - - -
10/10/2019 13:30 19.2 56 - - - - 0.0 - - - - - -
10/10/2019 13:40 19.4 55 - - - - 0.0 - - - - - -
10/10/2019 13:50 18.9 52 - - - - 0.0 - - - - - -
10/10/2019 14:00 18.9 53 - - - - 0.0 - - - - - -
10/10/2019 14:10 19.2 57 - - - - 0.0 - - - - - -
10/10/2019 14:20 19.3 55 - - - - 0.0 - - - - - -
10/10/2019 14:30 18.9 56 - - - - 0.0 - - - - - -
10/10/2019 14:40 18.9 58 - - - - 0.0 - - - - - -
10/10/2019 14:50 19.1 57 - - - - 0.0 - - - - - -
10/10/2019 15:00 18.6 60 - - - - 0.0 - - - - - -
10/10/2019 15:10 17.9 61 - - - - 0.0 - - - - - -
10/10/2019 15:20 18.3 61 - - - - 0.0 - - - - - -
10/10/2019 15:30 18.5 61 - - - - 0.0 - - - - - -
10/10/2019 15:40 18.2 61 - - - - 0.0 - - - - - -
10/10/2019 15:50 17.7 62 - - - - 0.0 - - - - - -
10/10/2019 16:00 17.4 63 - - - - 0.0 - - - - - -
10/10/2019 16:10 17.2 64 - - - - 0.0 - - - - - -
10/10/2019 16:20 16.1 67 - - - - 0.0 - - - - - -
10/10/2019 16:30 15.5 68 - - - - 0.0 - - - - - -
10/10/2019 16:40 15.3 70 - - - - 0.0 - - - - - -
10/10/2019 16:50 14.9 71 - - - - 0.0 - - - - - -
10/10/2019 17:00 14.6 73 - - - - 0.0 - - - - - -
10/10/2019 17:10 14.5 73 - - - - 0.0 - - - - - -
10/10/2019 17:20 14.1 74 - - - - 0.0 - - - - - -
10/10/2019 17:30 13.7 76 - - - - 0.0 - - - - - -
10/10/2019 17:40 13.5 76 - - - - 0.0 - - - - - -
10/10/2019 17:50 13.4 76 - - - - 0.0 - - - - - -
10/10/2019 18:00 13.3 75 - - - - 0.0 - - - - - -
10/10/2019 18:10 12.8 78 - - - - 0.0 - - - - - -
10/10/2019 18:20 12.9 77 - - - - 0.0 - - - - - -
10/10/2019 18:30 12.5 79 - - - - 0.0 - - - - - -
10/10/2019 18:40 12.4 80 - - - - 0.0 - - - - - -
10/10/2019 18:50 12.6 79 - - - - 0.0 - - - - - -
10/10/2019 19:00 12.8 78 - - - - 0.0 - - - - - -
10/10/2019 19:10 12.6 79 - - - - 0.0 - - - - - -
10/10/2019 19:20 12.3 81 - - - - 0.0 - - - - - -
10/10/2019 19:30 12.3 81 - - - - 0.0 - - - - - -
10/10/2019 19:40 12.2 82 - - - - 0.0 - - - - - -
10/10/2019 19:50 12.6 80 - - - - 0.0 - - - - - -
10/10/2019 20:00 12.9 78 - - - - 0.0 - - - - - -
10/10/2019 20:10 12.4 81 - - - - 0.0 - - - - - -
10/10/2019 20:20 11.9 83 - - - - 0.0 - - - - - -
10/10/2019 20:30 11.7 86 - - - - 0.0 - - - - - -
10/10/2019 20:40 11.5 86 - - - - 0.0 - - - - - -
10/10/2019 20:50 11.5 87 - - - - 0.0 - - - - - -
10/10/2019 21:00 11.4 88 - - - - 0.0 - - - - - -
10/10/2019 21:10 11.3 87 - - - - 0.0 - - - - - -
10/10/2019 21:20 11.2 89 - - - - 0.0 - - - - - -
10/10/2019 21:30 11.1 89 - - - - 0.0 - - - - - -
10/10/2019 21:40 10.7 91 - - - - 0.0 - - - - - -
10/10/2019 21:50 11.0 91 - - - - 0.0 - - - - - -
10/10/2019 22:00 11.8 86 - - - - 0.0 - - - - - -
10/10/2019 22:10 12.0 84 - - - - 0.0 - - - - - -
10/10/2019 22:20 12.3 81 - - - - 0.0 - - - - - -
10/10/2019 22:30 13.3 74 - - - - 0.0 - - - - - -
10/10/2019 22:40 15.0 63 - - - - 0.0 - - - - - -
10/10/2019 22:50 15.9 57 - - - - 0.0 - - - - - -
10/10/2019 23:00 15.9 56 - - - - 0.0 - - - - - -
10/10/2019 23:10 15.4 58 - - - - 0.0 - - - - - -
10/10/2019 23:20 15.1 59 - - - - 0.0 - - - - - -
10/10/2019 23:30 14.3 64 - - - - 0.0 - - - - - -
10/10/2019 23:40 12.8 72 - - - - 0.0 - - - - - -
10/10/2019 23:50 13.1 69 - - - - 0.0 - - - - - -
Anterior Página 1 de 1 Siguiente

NOTA: Tipo de datos según el color:
   - Valores diarios o 10 minutos correctos
   - Valores diarios calculados a partir de un número de datos 10 minutos menor que 144 y mayor que 120, o de un número de datos semihorarios menor que 48 y mayor que 40 (caso de las estaciones de Riegos de Navarra y del MARM)
   - Valores diez minutos estimados


Contacto        Enlaces        Aviso legal